Time;durP1;ratioP1;P1;durP2;ratioP2;P2;SDS_P1;SDS_P2;PMS_P1;PMS_P2;Temp;Humidity;BMP_temperature;BMP_pressure;BME280_temperature;BME280_humidity;BME280_pressure;Samples;Min_cycle;Max_cycle;Signal;HPM_P1;HPM_P2
2021/03/05 00:00:32;;;;;;;16.80;5.05;;;4.30;99.90;;;5.09;81.03;101485.19;5075305;28;20186;-74
2021/03/05 00:02:59;;;;;;;14.45;5.13;;;4.20;99.90;;;5.06;81.10;101496.47;5085001;28;20255;-74
2021/03/05 00:05:25;;;;;;;14.17;4.77;;;4.20;99.90;;;5.03;80.76;101499.06;5083322;28;20342;-76
2021/03/05 00:07:52;;;;;;;13.65;5.03;;;4.10;99.90;;;4.99;80.52;101502.53;5084603;28;20211;-74
2021/03/05 00:10:27;;;;;;;17.55;5.38;;;4.10;99.90;;;5.01;80.88;101513.75;5072269;28;21367;-76
2021/03/05 00:12:55;;;;;;;15.68;5.18;;;4.10;99.90;;;4.99;80.69;101504.25;5082590;28;20678;-74
2021/03/05 00:15:24;;;;;;;15.57;5.05;;;4.10;99.90;;;4.92;80.53;101502.56;5084637;28;20200;-75
2021/03/05 00:17:50;;;;;;;18.52;5.78;;;4.10;99.90;;;4.87;80.85;101512.06;5084760;28;20238;-76
2021/03/05 00:20:21;;;;;;;17.50;5.65;;;4.00;99.90;;;4.82;80.70;101514.66;5074267;28;20196;-75
2021/03/05 00:22:47;;;;;;;16.50;5.53;;;4.00;99.90;;;4.80;80.56;101520.72;5093727;27;20203;-75
2021/03/05 00:25:14;;;;;;;16.30;5.55;;;4.00;99.90;;;4.73;80.76;101519.00;5097588;27;20200;-74
2021/03/05 00:27:40;;;;;;;13.55;5.47;;;3.90;99.90;;;4.69;80.84;101520.72;5083320;28;20222;-75
2021/03/05 00:30:09;;;;;;;17.08;5.55;;;3.90;99.90;;;4.71;81.24;101538.84;5076750;28;20195;-75
2021/03/05 00:32:37;;;;;;;15.48;5.53;;;3.90;99.90;;;4.72;80.99;101541.44;5080786;28;20210;-76
2021/03/05 00:35:08;;;;;;;20.25;6.60;;;3.90;99.90;;;4.73;80.87;101540.59;5075134;28;20188;-75
2021/03/05 00:37:35;;;;;;;19.80;6.30;;;3.90;99.90;;;4.73;80.93;101545.78;5078559;28;20220;-75
2021/03/05 00:40:03;;;;;;;18.77;6.65;;;3.90;99.90;;;4.69;80.57;101540.56;5076384;28;20224;-75
2021/03/05 00:42:29;;;;;;;20.15;6.22;;;3.90;99.90;;;4.60;80.58;101540.59;5078193;28;20211;-76
2021/03/05 00:44:55;;;;;;;17.90;6.70;;;3.80;99.90;;;4.61;80.95;101553.56;5090236;28;20214;-75
2021/03/05 00:47:23;;;;;;;18.90;6.25;;;3.80;99.90;;;4.63;80.65;101549.25;5077168;28;20300;-75
2021/03/05 00:49:49;;;;;;;22.67;6.82;;;3.80;99.90;;;4.63;80.81;101551.84;5072254;28;20223;-76
2021/03/05 00:52:15;;;;;;;20.48;6.40;;;3.80;99.90;;;4.62;80.95;101549.25;5080722;28;20180;-74
2021/03/05 00:54:42;;;;;;;20.03;6.17;;;3.80;99.90;;;4.62;81.27;101554.44;5085639;28;20191;-76
2021/03/05 00:57:08;;;;;;;17.10;5.50;;;3.80;99.90;;;4.61;81.03;101553.56;5081306;28;20231;-75
2021/03/05 00:59:35;;;;;;;17.97;6.20;;;3.80;99.90;;;4.66;81.12;101557.00;5076270;28;20303;-76
2021/03/05 01:02:01;;;;;;;17.20;5.77;;;3.80;99.90;;;4.65;80.82;101555.28;5084412;28;20184;-76
2021/03/05 01:04:29;;;;;;;20.15;5.88;;;3.80;99.90;;;4.64;80.52;101558.72;5075476;28;20535;-75
2021/03/05 01:06:58;;;;;;;16.95;5.88;;;3.80;99.90;;;4.63;80.40;101553.56;5077995;28;20215;-75
2021/03/05 01:09:32;;;;;;;21.95;6.05;;;3.80;99.90;;;4.64;80.55;101552.69;5078989;28;20213;-74
2021/03/05 01:12:01;;;;;;;18.95;5.75;;;3.80;99.90;;;4.63;80.53;101557.00;5083776;28;20776;-75
2021/03/05 01:14:27;;;;;;;24.30;6.50;;;3.80;99.90;;;4.61;80.78;101560.44;5082131;28;20203;-76
2021/03/05 01:16:54;;;;;;;18.42;6.07;;;3.80;99.90;;;4.60;80.69;101567.38;5083942;28;20235;-76
2021/03/05 01:19:20;;;;;;;22.67;6.03;;;3.80;99.90;;;4.60;80.53;101561.31;5073340;28;20220;-75
2021/03/05 01:21:47;;;;;;;23.63;5.88;;;3.80;99.90;;;4.61;80.52;101569.09;5085630;28;20196;-76
2021/03/05 01:24:14;;;;;;;24.13;6.53;;;3.80;99.90;;;4.58;80.42;101563.94;5078949;28;20184;-75
2021/03/05 01:26:41;;;;;;;18.97;5.13;;;3.70;99.90;;;4.55;80.28;101576.00;5097022;28;20211;-75
2021/03/05 01:29:08;;;;;;;21.58;6.60;;;3.70;99.90;;;4.49;79.87;101571.69;5078279;28;20251;-76
2021/03/05 01:31:34;;;;;;;27.15;6.40;;;3.60;99.90;;;4.41;80.10;101580.31;5076741;28;20195;-75
2021/03/05 01:34:01;;;;;;;21.27;6.30;;;3.60;99.90;;;4.36;80.04;101577.72;5085659;28;20179;-74
2021/03/05 01:36:27;;;;;;;22.95;6.65;;;3.50;99.90;;;4.38;79.93;101586.34;5085289;28;20237;-75
2021/03/05 01:38:54;;;;;;;19.92;5.72;;;3.50;99.90;;;4.37;79.93;101584.59;5080505;28;20203;-76
2021/03/05 01:41:21;;;;;;;21.53;5.73;;;3.50;99.90;;;4.34;79.87;101587.19;5076497;28;20262;-76
2021/03/05 01:43:47;;;;;;;23.30;6.83;;;3.40;99.90;;;4.28;79.48;101588.91;5078839;28;20195;-76
2021/03/05 01:46:16;;;;;;;26.13;6.77;;;3.30;99.90;;;4.24;79.60;101587.16;5087778;28;20215;-74
2021/03/05 01:48:43;;;;;;;24.60;6.23;;;3.30;99.90;;;4.21;79.55;101588.03;5093483;28;20195;-75
2021/03/05 01:51:14;;;;;;;26.87;6.57;;;3.20;99.90;;;4.20;79.53;101588.03;5079253;28;20191;-75
2021/03/05 01:53:42;;;;;;;35.70;7.40;;;3.20;99.90;;;4.13;79.63;101589.75;5078953;28;20192;-79
2021/03/05 01:56:29;;;;;;;28.38;6.82;;;3.10;99.90;;;4.11;80.03;101596.66;5091571;28;20207;-75
2021/03/05 01:58:56;;;;;;;24.47;6.53;;;3.10;99.90;;;4.08;79.94;101596.66;5115767;28;20237;-75
2021/03/05 02:01:25;;;;;;;30.60;8.40;;;3.10;99.90;;;3.99;79.76;101601.78;5102530;28;20610;-73
2021/03/05 02:03:52;;;;;;;23.90;6.63;;;3.00;99.90;;;3.98;79.73;101599.19;5100977;28;20176;-75
2021/03/05 02:06:20;;;;;;;28.57;7.60;;;3.00;99.90;;;3.93;79.79;101601.78;5105800;28;20214;-75
2021/03/05 02:08:47;;;;;;;24.80;6.57;;;2.90;99.90;;;3.80;79.66;101598.25;5109153;28;20183;-74
2021/03/05 02:11:16;;;;;;;30.60;7.70;;;2.90;99.90;;;3.78;80.10;101606.88;5113841;28;20214;-75
2021/03/05 02:13:43;;;;;;;28.33;7.90;;;2.90;99.90;;;3.80;80.12;101610.34;5100950;28;20208;-74
2021/03/05 02:16:26;;;;;;;29.60;7.20;;;2.80;99.90;;;3.78;79.99;101614.66;5095215;27;20224;-76
2021/03/05 02:19:02;;;;;;;30.17;7.67;;;2.80;99.90;;;3.78;80.12;101617.25;5084301;28;20207;-75
2021/03/05 02:22:22;;;;;;;29.70;8.60;;;2.80;99.90;;;3.73;80.21;101622.38;5080093;28;20198;-76
2021/03/05 02:25:35;;;;;;;24.10;7.30;;;2.80;99.90;;;3.70;80.45;101619.78;5063155;28;20218;-75
2021/03/05 02:28:41;;;;;;;26.00;6.70;;;2.80;99.90;;;3.69;80.36;101623.22;5044771;28;20215;-74
2021/03/05 02:31:24;;;;;;;23.63;6.80;;;2.80;99.90;;;3.67;80.52;101626.66;5084491;28;20199;-75
2021/03/05 02:33:56;;;;;;;31.88;6.07;;;2.70;99.90;;;3.60;80.68;101630.09;5079602;28;20203;-76
2021/03/05 02:36:30;;;;;;;23.87;6.40;;;2.70;99.90;;;3.51;80.77;101637.78;5087220;28;20237;-74
2021/03/05 02:39:06;;;;;;;27.40;5.93;;;2.70;99.90;;;3.45;80.79;101633.44;5084615;28;20277;-75
2021/03/05 02:41:37;;;;;;;21.87;6.33;;;2.60;99.90;;;3.40;81.00;101640.28;5087196;28;20732;-75
2021/03/05 02:44:07;;;;;;;25.97;6.60;;;2.60;99.90;;;3.35;81.28;101654.06;5088885;28;20218;-74
2021/03/05 02:46:37;;;;;;;27.30;7.40;;;2.50;99.90;;;3.32;81.26;101654.91;5088043;28;20215;-75
2021/03/05 02:49:07;;;;;;;26.50;6.10;;;2.50;99.90;;;3.34;81.45;101654.91;5090483;28;20186;-75
2021/03/05 02:51:35;;;;;;;20.77;5.83;;;2.50;99.90;;;3.27;81.29;101659.19;5088391;28;20253;-74
2021/03/05 02:54:04;;;;;;;24.23;5.70;;;2.40;99.90;;;3.23;81.69;101667.75;5087658;28;20192;-74
2021/03/05 02:56:33;;;;;;;30.70;6.60;;;2.40;99.90;;;3.23;81.69;101669.50;5090202;28;20208;-75
2021/03/05 02:59:01;;;;;;;27.17;6.37;;;2.40;99.90;;;3.21;81.59;101658.28;5090000;28;20751;-75
2021/03/05 03:01:28;;;;;;;21.03;5.93;;;2.40;99.90;;;3.18;81.77;101666.00;5086123;28;20664;-75
2021/03/05 03:03:59;;;;;;;18.90;5.40;;;2.30;99.90;;;3.18;81.93;101666.84;5095037;28;20219;-76
2021/03/05 03:06:26;;;;;;;16.63;5.40;;;2.30;99.90;;;3.17;81.91;101678.06;5088223;28;20223;-75
2021/03/05 03:08:57;;;;;;;21.03;5.37;;;2.30;99.90;;;3.19;81.58;101671.19;5075614;28;20191;-76
2021/03/05 03:11:25;;;;;;;17.90;4.67;;;2.30;99.90;;;3.17;81.88;101674.59;5077331;28;20184;-75
2021/03/05 03:13:53;;;;;;;15.10;4.87;;;2.30;99.90;;;3.14;82.13;101682.34;5092563;28;20576;-75
2021/03/05 03:16:21;;;;;;;19.53;5.63;;;2.20;99.90;;;3.12;82.20;101690.09;5077453;28;20208;-75
2021/03/05 03:18:47;;;;;;;17.90;5.70;;;2.20;99.90;;;3.14;82.05;101690.09;5076418;28;20211;-75
2021/03/05 03:21:16;;;;;;;20.20;4.27;;;2.20;99.90;;;3.10;81.88;101696.09;5080659;28;20271;-75
2021/03/05 03:23:42;;;;;;;19.83;5.60;;;2.10;99.90;;;3.05;82.09;101690.88;5087262;28;20261;-75
2021/03/05 03:26:09;;;;;;;17.03;4.73;;;2.10;99.90;;;2.98;81.93;101694.25;5079156;28;20215;-75
2021/03/05 03:28:37;;;;;;;17.40;4.73;;;2.10;99.90;;;2.97;81.82;101702.00;5082521;28;20189;-73
2021/03/05 03:31:06;;;;;;;13.33;5.30;;;2.00;99.90;;;2.94;81.75;101699.38;5077086;28;20242;-74
2021/03/05 03:33:33;;;;;;;21.57;5.40;;;2.00;99.90;;;2.89;81.96;101707.13;5077704;28;20661;-75
2021/03/05 03:36:02;;;;;;;19.40;4.50;;;1.90;99.90;;;2.81;82.12;101713.06;5073309;28;20742;-75
2021/03/05 03:38:31;;;;;;;16.57;4.43;;;1.90;99.90;;;2.82;82.05;101717.34;5095091;28;20618;-74
2021/03/05 03:40:59;;;;;;;16.60;4.40;;;1.90;99.90;;;2.81;82.25;101723.38;5075384;28;20192;-76
2021/03/05 03:43:26;;;;;;;11.63;4.20;;;1.90;99.90;;;2.84;82.12;101731.16;5089069;28;20187;-76
2021/03/05 03:45:54;;;;;;;17.48;4.50;;;1.90;99.90;;;2.85;82.04;101727.75;5083761;28;20216;-75
2021/03/05 03:48:21;;;;;;;15.80;4.93;;;1.90;99.90;;;2.81;82.00;101733.72;5076625;28;20181;-76
2021/03/05 03:50:54;;;;;;;16.57;4.80;;;1.90;99.90;;;2.84;81.72;101736.34;5074545;28;20679;-76
2021/03/05 03:53:26;;;;;;;17.53;4.60;;;1.90;99.90;;;2.84;81.73;101739.78;5073092;28;20200;-75
2021/03/05 03:55:54;;;;;;;16.93;5.30;;;1.90;99.90;;;2.83;81.91;101740.63;5073547;28;20235;-75
2021/03/05 03:58:23;;;;;;;15.53;5.07;;;1.90;99.90;;;2.84;81.96;101746.66;5087701;28;20249;-76
2021/03/05 04:00:54;;;;;;;17.70;5.30;;;1.90;99.90;;;2.78;81.63;101744.03;5073394;28;20192;-75
2021/03/05 04:03:27;;;;;;;16.43;4.80;;;1.80;99.90;;;2.76;81.74;101754.34;5085286;28;20234;-75
2021/03/05 04:05:56;;;;;;;11.60;4.00;;;1.80;99.90;;;2.72;82.13;101750.00;5078981;28;20219;-74
2021/03/05 04:08:25;;;;;;;11.47;3.77;;;1.80;99.90;;;2.71;81.98;101757.72;5089422;28;20313;-75
2021/03/05 04:10:53;;;;;;;15.33;3.67;;;1.80;99.90;;;2.71;81.78;101758.59;5077589;28;20192;-75
2021/03/05 04:13:20;;;;;;;14.73;3.80;;;1.80;99.90;;;2.70;81.86;101758.59;5078746;28;20203;-75
2021/03/05 04:15:47;;;;;;;18.30;4.07;;;1.70;99.90;;;2.65;81.79;101757.66;5083450;28;20196;-74
2021/03/05 04:18:14;;;;;;;12.40;4.00;;;1.70;99.90;;;2.62;81.92;101767.94;5073249;28;20671;-75
2021/03/05 04:20:45;;;;;;;16.17;4.07;;;1.70;99.90;;;2.53;81.71;101767.00;5082794;28;20606;-75
2021/03/05 04:23:11;;;;;;;11.43;2.80;;;1.70;99.90;;;2.47;82.27;101769.50;5085544;28;20200;-76
2021/03/05 04:25:38;;;;;;;12.57;3.13;;;1.60;99.90;;;2.45;82.06;101767.75;5082279;28;20206;-75
2021/03/05 04:28:06;;;;;;;14.50;3.53;;;1.60;99.90;;;2.42;82.63;101772.88;5083566;28;21039;-74
2021/03/05 04:30:32;;;;;;;13.00;3.20;;;1.60;99.90;;;2.43;82.56;101782.34;5092523;28;20247;-75
2021/03/05 04:32:59;;;;;;;16.90;3.97;;;1.60;99.90;;;2.45;82.82;101778.06;5074442;28;20249;-75
2021/03/05 04:35:25;;;;;;;13.67;3.43;;;1.60;99.90;;;2.48;82.81;101783.28;5075706;28;20184;-75
2021/03/05 04:37:52;;;;;;;9.20;2.83;;;1.60;99.90;;;2.46;82.63;101787.56;5096519;28;20623;-75
2021/03/05 04:40:18;;;;;;;10.93;2.80;;;1.60;99.90;;;2.42;82.84;101791.84;5080995;28;20228;-75
2021/03/05 04:42:44;;;;;;;11.30;3.03;;;1.60;99.90;;;2.39;83.06;101793.50;5085149;28;20191;-75
2021/03/05 04:45:12;;;;;;;10.40;2.93;;;1.60;99.90;;;2.37;83.01;101813.25;5084896;28;20207;-76
2021/03/05 04:47:38;;;;;;;11.53;3.00;;;1.60;99.90;;;2.27;83.02;101817.44;5071721;28;20235;-75
2021/03/05 04:50:07;;;;;;;12.43;3.37;;;1.50;99.90;;;2.17;83.58;101818.16;5094721;28;20631;-75
2021/03/05 04:52:33;;;;;;;10.97;2.83;;;1.40;99.90;;;2.16;83.51;101816.41;5080043;28;20241;-75
2021/03/05 04:54:59;;;;;;;15.13;4.07;;;1.40;99.90;;;2.11;83.61;101823.22;5079157;28;20184;-76
2021/03/05 04:57:25;;;;;;;16.90;3.90;;;1.40;99.90;;;2.09;83.99;101837.81;5081882;28;20211;-75
2021/03/05 04:59:52;;;;;;;16.27;4.37;;;1.40;99.90;;;2.06;83.86;101842.09;5080335;28;20231;-75
2021/03/05 05:02:19;;;;;;;12.90;4.07;;;1.30;99.90;;;2.05;83.91;101840.31;5076631;28;20203;-75
2021/03/05 05:04:46;;;;;;;17.03;4.33;;;1.30;99.90;;;2.07;83.91;101839.53;5081511;28;20274;-75
2021/03/05 05:07:12;;;;;;;12.60;3.90;;;1.30;99.90;;;2.07;83.76;101844.69;5077772;28;20223;-75
2021/03/05 05:09:38;;;;;;;16.67;4.07;;;1.30;99.90;;;2.06;83.42;101840.34;5086107;28;20199;-75
2021/03/05 05:12:07;;;;;;;14.37;3.73;;;1.30;99.90;;;2.04;83.74;101847.19;5077489;28;20202;-75
2021/03/05 05:14:33;;;;;;;8.63;2.97;;;1.30;99.90;;;2.01;83.61;101854.88;5087034;28;20212;-75
2021/03/05 05:17:02;;;;;;;13.77;3.10;;;1.30;99.90;;;2.01;83.69;101854.03;5098563;28;20204;-76
2021/03/05 05:19:29;;;;;;;13.53;3.73;;;1.30;99.90;;;2.02;83.71;101856.66;5102729;28;20195;-75
2021/03/05 05:21:55;;;;;;;9.47;2.80;;;1.30;99.90;;;2.06;84.07;101857.56;5085223;28;20214;-75
2021/03/05 05:24:22;;;;;;;13.60;3.03;;;1.30;99.90;;;2.07;83.68;101852.44;5078438;28;20202;-74
2021/03/05 05:26:48;;;;;;;8.50;2.73;;;1.30;99.90;;;2.07;83.64;101862.75;5083397;28;20616;-76
2021/03/05 05:29:15;;;;;;;9.07;2.70;;;1.30;99.90;;;2.09;83.74;101858.44;5079812;28;20191;-76
2021/03/05 05:31:41;;;;;;;10.13;2.97;;;1.30;99.90;;;2.07;83.68;101854.13;5080055;28;20195;-75
2021/03/05 05:34:07;;;;;;;8.77;2.33;;;1.30;99.90;;;2.03;83.66;101858.38;5081512;28;20187;-75
2021/03/05 05:36:34;;;;;;;10.17;2.43;;;1.20;99.90;;;1.93;83.69;101853.91;5077529;28;20212;-75
2021/03/05 05:39:01;;;;;;;11.47;2.50;;;1.20;99.90;;;1.91;83.82;101872.81;5080625;28;20211;-74
2021/03/05 05:41:27;;;;;;;8.23;2.53;;;1.10;99.90;;;1.90;84.06;101871.06;5091454;28;20283;-75
2021/03/05 05:43:53;;;;;;;14.17;2.90;;;1.10;99.90;;;1.93;84.05;101879.72;5086813;28;20196;-75
2021/03/05 05:46:22;;;;;;;12.47;2.43;;;1.10;99.90;;;1.91;84.04;101877.97;5076488;28;20211;-76
2021/03/05 05:48:50;;;;;;;15.00;3.33;;;1.10;99.90;;;1.88;83.78;101878.75;5079046;28;20274;-75
2021/03/05 05:51:20;;;;;;;11.80;3.00;;;1.10;99.90;;;1.87;84.24;101879.63;5081526;28;20281;-75
2021/03/05 05:53:48;;;;;;;9.57;2.60;;;1.10;99.90;;;1.87;83.94;101884.78;5079584;28;20196;-76
2021/03/05 05:56:16;;;;;;;11.47;2.83;;;1.10;99.90;;;1.83;84.29;101885.56;5073537;28;20215;-74
2021/03/05 05:58:44;;;;;;;8.93;2.67;;;1.10;99.90;;;1.79;84.42;101882.91;5078199;28;20724;-74
2021/03/05 06:01:11;;;;;;;8.20;2.37;;;1.10;99.90;;;1.83;84.60;101885.56;5081424;28;20199;-75
2021/03/05 06:03:39;;;;;;;9.60;2.93;;;1.10;99.90;;;1.85;84.51;101883.88;5080287;28;20195;-75
2021/03/05 06:06:06;;;;;;;12.30;3.50;;;1.10;99.90;;;1.88;84.40;101891.66;5080000;28;20211;-73
2021/03/05 06:08:33;;;;;;;7.63;2.50;;;1.10;99.90;;;1.86;84.27;101898.50;5079390;28;20274;-76
2021/03/05 06:11:01;;;;;;;12.00;2.77;;;1.10;99.90;;;1.84;84.49;101902.75;5082980;28;20196;-75
2021/03/05 06:13:28;;;;;;;8.50;2.70;;;1.10;99.90;;;1.84;84.29;101902.75;5078208;28;20607;-75
2021/03/05 06:16:14;;;;;;;11.53;2.80;;;1.10;99.90;;;1.88;84.46;101903.69;5079370;28;20711;-75
2021/03/05 06:18:42;;;;;;;8.97;2.90;;;1.10;99.90;;;1.90;84.43;101902.88;5082666;28;20230;-75
2021/03/05 06:21:08;;;;;;;11.20;3.23;;;1.10;99.90;;;1.94;84.76;101907.22;5077089;28;20672;-74
2021/03/05 06:23:36;;;;;;;12.23;2.93;;;1.20;99.90;;;1.93;84.50;101902.06;5086168;28;20204;-76
2021/03/05 06:26:04;;;;;;;12.23;3.70;;;1.20;99.90;;;1.92;84.54;101921.84;5084671;28;20284;-75
2021/03/05 06:28:30;;;;;;;9.13;3.23;;;1.20;99.90;;;1.89;84.86;101932.09;5077210;28;20724;-75
2021/03/05 06:30:57;;;;;;;10.37;2.83;;;1.20;99.90;;;1.88;84.88;101920.03;5083775;28;20256;-75
2021/03/05 06:33:29;;;;;;;11.13;3.50;;;1.20;99.90;;;1.92;84.90;101936.44;5075138;28;20192;-76
2021/03/05 06:36:14;;;;;;;11.93;3.43;;;1.20;99.90;;;1.90;84.95;101939.00;5081825;28;20214;-76
2021/03/05 06:38:43;;;;;;;12.60;2.80;;;1.20;99.90;;;1.95;85.18;101932.22;5076057;28;20353;-76
2021/03/05 06:41:23;;;;;;;10.63;3.23;;;1.30;99.90;;;2.00;85.05;101946.06;5072652;28;20211;-76
2021/03/05 06:43:51;;;;;;;11.30;3.40;;;1.30;99.90;;;2.02;85.08;101944.38;5081179;28;20667;-75
2021/03/05 06:46:36;;;;;;;11.10;2.90;;;1.40;99.90;;;2.09;85.35;101955.69;5070480;28;20211;-76
2021/03/05 06:49:05;;;;;;;14.07;3.20;;;1.50;99.90;;;2.09;85.15;101961.69;5082602;28;20195;-76
2021/03/05 06:51:32;;;;;;;10.27;3.43;;;1.50;99.90;;;2.04;85.04;101958.16;5082709;28;20206;-75
2021/03/05 06:54:12;;;;;;;9.43;3.37;;;1.50;99.90;;;2.01;85.09;101952.94;5083652;28;20185;-75
2021/03/05 06:56:41;;;;;;;8.87;2.77;;;1.50;99.90;;;2.06;85.03;101963.38;5077498;28;20222;-75
2021/03/05 06:59:11;;;;;;;9.47;3.23;;;1.50;99.90;;;2.08;85.37;101956.50;5072045;28;20203;-73
2021/03/05 07:01:53;;;;;;;15.13;3.93;;;1.50;99.90;;;2.10;85.24;101973.75;5081574;28;20203;-76
2021/03/05 07:04:23;;;;;;;7.77;2.97;;;1.50;99.90;;;2.08;85.16;101974.56;5086798;28;20188;-75
2021/03/05 07:07:01;;;;;;;10.73;2.80;;;1.50;99.90;;;2.08;85.34;101977.13;5081537;28;20227;-75
2021/03/05 07:09:30;;;;;;;9.40;3.13;;;1.60;99.90;;;2.10;85.19;101975.47;5082207;28;20195;-75
2021/03/05 07:11:59;;;;;;;10.90;3.37;;;1.60;99.90;;;2.15;85.22;101990.19;5081560;28;20200;-76
2021/03/05 07:14:31;;;;;;;10.30;3.30;;;1.60;99.90;;;2.21;85.03;101989.44;5085103;28;20305;-75
2021/03/05 07:16:58;;;;;;;10.60;3.40;;;1.60;99.90;;;2.24;84.95;101992.91;5081446;28;20234;-75
2021/03/05 07:19:27;;;;;;;9.77;3.47;;;1.60;99.90;;;2.30;84.60;101992.16;5087601;28;20221;-75
2021/03/05 07:21:54;;;;;;;12.40;3.33;;;1.70;99.90;;;2.33;84.82;101998.25;5086668;28;20293;-75
2021/03/05 07:24:23;;;;;;;10.50;3.07;;;1.70;99.90;;;2.40;84.29;102000.09;5087364;28;20231;-75
2021/03/05 07:26:56;;;;;;;10.13;3.10;;;1.80;99.90;;;2.45;84.29;102001.03;5078579;28;20243;-75
2021/03/05 07:29:26;;;;;;;8.40;3.30;;;1.80;99.90;;;2.54;84.50;102014.06;5092850;28;20203;-74
2021/03/05 07:32:08;;;;;;;11.53;4.00;;;1.90;99.90;;;2.60;84.07;102010.72;5082760;28;20203;-75
2021/03/05 07:34:49;;;;;;;10.70;3.43;;;2.00;99.90;;;2.60;84.02;102015.03;5084634;28;20208;-76
2021/03/05 07:37:18;;;;;;;11.00;4.10;;;2.00;99.90;;;2.62;83.95;102016.78;5078213;28;20222;-74
2021/03/05 07:39:48;;;;;;;15.77;6.20;;;2.00;99.90;;;2.65;83.73;102006.50;5084500;28;20219;-75
2021/03/05 07:42:16;;;;;;;12.07;4.13;;;2.10;99.90;;;2.72;83.82;102018.66;5086792;28;20689;-75
2021/03/05 07:44:50;;;;;;;10.03;3.40;;;2.10;99.90;;;2.73;83.60;102025.56;5087275;28;20215;-76
2021/03/05 07:47:16;;;;;;;10.27;3.43;;;2.20;99.90;;;2.77;83.52;102026.47;5080132;28;20212;-76
2021/03/05 07:49:45;;;;;;;11.07;3.70;;;2.20;99.90;;;2.73;83.39;102029.88;5080640;28;20274;-75
2021/03/05 07:52:13;;;;;;;14.57;4.23;;;2.20;99.90;;;2.68;83.55;102026.34;5085021;28;20195;-77
2021/03/05 07:54:50;;;;;;;12.13;4.30;;;2.20;99.90;;;2.71;83.71;102021.22;5083027;28;20570;-75
2021/03/05 07:57:48;;;;;;;13.27;4.10;;;2.20;99.90;;;2.77;83.83;102026.47;5088283;28;20218;-74
2021/03/05 08:00:47;;;;;;;11.73;3.97;;;2.30;99.90;;;2.82;83.48;102035.16;5080277;28;20227;-74
2021/03/05 08:03:16;;;;;;;13.27;4.20;;;2.40;99.90;;;2.91;83.52;102031.03;5073939;28;20241;-74
2021/03/05 08:05:45;;;;;;;13.13;4.73;;;2.40;99.90;;;2.99;83.31;102028.53;5076387;28;20200;-74
2021/03/05 08:08:21;;;;;;;11.63;4.23;;;2.50;99.90;;;3.06;82.87;102031.25;5073155;28;20222;-74
2021/03/05 08:10:54;;;;;;;15.10;4.23;;;2.50;99.90;;;3.12;82.68;102035.63;5083810;28;20195;-75
2021/03/05 08:13:51;;;;;;;10.03;3.67;;;2.60;99.90;;;3.18;82.03;102033.13;5090772;28;20196;-75
2021/03/05 08:16:39;;;;;;;12.43;3.20;;;2.70;99.90;;;3.21;81.92;102038.34;5074073;28;20211;-75
2021/03/05 08:19:49;;;;;;;9.27;3.37;;;2.70;99.90;;;3.27;81.61;102043.59;5086848;28;20633;-76
2021/03/05 08:22:20;;;;;;;13.63;3.93;;;2.80;99.90;;;3.32;81.61;102039.34;5096839;28;20180;-76
2021/03/05 08:24:47;;;;;;;9.90;3.23;;;2.90;99.90;;;3.38;81.75;102047.19;5105071;28;20188;-76
2021/03/05 08:27:22;;;;;;;12.17;3.43;;;2.90;99.90;;;3.41;81.31;102049.81;5092724;28;20215;-75
2021/03/05 08:30:03;;;;;;;10.20;3.30;;;2.90;99.90;;;3.47;81.29;102049.88;5079551;28;20338;-76
2021/03/05 08:32:55;;;;;;;13.57;3.67;;;3.00;99.90;;;3.55;81.11;102056.06;5082171;28;20226;-76
2021/03/05 08:35:45;;;;;;;10.60;3.30;;;3.00;99.90;;;3.72;80.96;102062.28;5076990;28;20672;-72
2021/03/05 08:38:15;;;;;;;12.03;3.43;;;3.20;99.90;;;3.85;80.56;102057.28;5069647;28;20199;-75
2021/03/05 08:40:56;;;;;;;11.13;3.47;;;3.40;99.90;;;3.97;79.99;102053.09;5072514;28;20211;-74
2021/03/05 08:43:25;;;;;;;12.10;3.45;;;3.50;99.90;;;3.98;79.72;102050.53;5073399;28;20187;-76
2021/03/05 08:45:55;;;;;;;9.80;3.72;;;3.60;99.90;;;4.00;79.60;102056.59;5084487;28;20211;-74
2021/03/05 08:48:34;;;;;;;11.32;3.40;;;3.70;99.90;;;4.06;79.41;102061.81;5074017;28;20218;-76
2021/03/05 08:51:10;;;;;;;12.25;4.43;;;3.80;99.90;;;4.16;79.44;102065.38;5077144;28;20615;-76
2021/03/05 08:53:43;;;;;;;13.65;4.72;;;3.90;99.90;;;4.22;79.25;102071.47;5086913;28;20270;-77
2021/03/05 08:56:11;;;;;;;17.80;5.63;;;3.90;99.90;;;4.22;79.15;102076.66;5076243;28;20815;-76
2021/03/05 08:58:39;;;;;;;13.18;4.47;;;4.00;99.90;;;4.31;78.84;102086.25;5076162;28;20200;-76
2021/03/05 09:01:05;;;;;;;14.63;4.82;;;4.10;99.90;;;4.35;78.48;102083.72;5078786;28;20360;-76
2021/03/05 09:03:33;;;;;;;13.02;4.57;;;4.20;99.90;;;4.32;78.08;102088.84;5075019;28;20188;-76
2021/03/05 09:05:59;;;;;;;11.45;4.60;;;4.10;99.90;;;4.31;78.09;102084.53;5074471;28;20273;-76
2021/03/05 09:08:26;;;;;;;21.15;5.28;;;4.10;99.90;;;4.32;78.20;102086.25;5072274;28;20702;-77
2021/03/05 09:10:57;;;;;;;14.23;4.55;;;4.10;99.90;;;4.31;77.86;102089.72;5071060;28;20572;-76
2021/03/05 09:13:27;;;;;;;12.82;4.68;;;4.10;99.90;;;4.29;77.39;102094.00;5075670;28;20215;-75
2021/03/05 09:15:56;;;;;;;11.75;4.25;;;4.00;99.90;;;4.33;77.19;102089.72;5070836;28;20222;-77
2021/03/05 09:18:26;;;;;;;13.23;4.55;;;4.10;99.90;;;4.38;77.03;102096.69;5072091;28;20743;-76
2021/03/05 09:20:58;;;;;;;12.65;4.85;;;4.10;99.90;;;4.43;76.48;102101.91;5076728;28;20207;-76
2021/03/05 09:23:33;;;;;;;14.38;5.03;;;4.10;99.90;;;4.52;76.14;102102.88;5081401;28;20203;-76
2021/03/05 09:26:03;;;;;;;12.75;4.50;;;4.20;99.90;;;4.60;75.66;102098.66;5070495;28;20215;-76
2021/03/05 09:28:39;;;;;;;13.82;4.90;;;4.20;99.90;;;4.70;75.73;102103.06;5085859;28;20208;-74
2021/03/05 09:31:07;;;;;;;15.00;5.03;;;4.30;99.90;;;4.77;75.41;102112.59;5070774;28;20219;-77
2021/03/05 09:33:36;;;;;;;11.25;4.63;;;4.50;99.90;;;4.88;75.53;102108.38;5085513;28;20212;-78
2021/03/05 09:36:08;;;;;;;15.55;5.55;;;4.60;99.90;;;4.87;75.24;102121.34;5069137;28;20715;-75
2021/03/05 09:38:39;;;;;;;13.48;4.32;;;4.70;99.90;;;4.90;75.09;102127.44;5072585;28;20214;-74
2021/03/05 09:41:17;;;;;;;12.85;4.40;;;4.70;99.90;;;4.94;74.61;102133.47;5078555;28;20702;-74
2021/03/05 09:43:58;;;;;;;12.85;4.32;;;4.70;99.90;;;4.84;73.14;102135.13;5070303;28;20525;-77
2021/03/05 09:46:27;;;;;;;14.43;4.80;;;4.60;99.90;;;4.78;72.57;102140.28;5074043;28;20547;-75
2021/03/05 09:48:57;;;;;;;12.57;4.10;;;4.50;99.90;;;4.76;72.13;102141.09;5079691;28;20210;-76
2021/03/05 09:51:25;;;;;;;10.73;3.97;;;4.40;99.90;;;4.75;71.65;102148.03;5077411;28;20192;-75
2021/03/05 09:53:54;;;;;;;12.55;4.53;;;4.40;99.90;;;4.75;71.25;102145.44;5081711;28;20191;-75
2021/03/05 09:56:24;;;;;;;10.90;4.13;;;4.30;99.90;;;4.78;70.75;102152.38;5080538;28;20215;-74
2021/03/05 09:58:57;;;;;;;10.68;4.03;;;4.40;99.90;;;4.75;70.57;102153.22;5073961;28;20286;-74
2021/03/05 10:01:25;;;;;;;10.82;4.25;;;4.30;99.90;;;4.74;70.43;102155.78;5085526;28;20661;-76
2021/03/05 10:03:54;;;;;;;13.75;4.57;;;4.30;99.90;;;4.76;70.56;102154.06;5071970;28;20200;-76
2021/03/05 10:06:20;;;;;;;10.90;3.58;;;4.40;99.90;;;4.83;70.38;102158.47;5073605;28;20208;-75
2021/03/05 10:08:57;;;;;;;13.60;4.07;;;4.50;99.90;;;4.87;69.62;102158.50;5082715;28;20199;-78
2021/03/05 10:11:32;;;;;;;9.30;3.42;;;4.50;99.90;;;4.89;69.22;102156.78;5102273;28;20187;-75
2021/03/05 10:13:59;;;;;;;10.15;3.58;;;4.50;99.90;;;4.92;68.95;102156.81;5072159;28;20219;-74
2021/03/05 10:16:29;;;;;;;10.45;3.40;;;4.50;99.90;;;5.01;68.52;102162.09;5081313;28;20215;-75
2021/03/05 10:19:04;;;;;;;10.00;3.40;;;4.60;99.90;;;5.06;68.07;102164.72;5069251;28;20893;-77
2021/03/05 10:21:32;;;;;;;8.07;2.75;;;4.70;99.90;;;5.09;67.96;102164.72;5075134;28;20202;-76
2021/03/05 10:24:07;;;;;;;9.25;2.85;;;4.70;99.90;;;5.13;67.52;102157.00;5077202;28;20204;-76
2021/03/05 10:26:35;;;;;;;6.85;2.10;;;4.70;99.90;;;5.20;66.40;102172.59;5081478;28;20221;-75
2021/03/05 10:29:04;;;;;;;9.20;2.28;;;4.80;99.90;;;5.29;64.45;102162.31;5087403;28;20260;-76
2021/03/05 10:31:52;;;;;;;7.32;2.00;;;4.90;99.90;;;5.42;63.13;102170.19;5086676;28;20237;-77
2021/03/05 10:34:24;;;;;;;8.68;1.90;;;5.00;99.90;;;5.54;62.17;102165.09;5092559;28;20246;-76